sensor_id;sensor_type;location;lat;lon;timestamp;temperature;humidity
10270;DHT22;70826;50.930;5.334;2024-01-11T00:02:19;18.60;51.20
10270;DHT22;70826;50.930;5.334;2024-01-11T00:04:45;18.60;51.10
10270;DHT22;70826;50.930;5.334;2024-01-11T00:07:10;18.60;51.10
10270;DHT22;70826;50.930;5.334;2024-01-11T00:09:41;18.60;51.10
10270;DHT22;70826;50.930;5.334;2024-01-11T00:12:07;18.60;51.10
10270;DHT22;70826;50.930;5.334;2024-01-11T00:14:32;18.60;51.10
10270;DHT22;70826;50.930;5.334;2024-01-11T00:16:58;18.60;51.10
10270;DHT22;70826;50.930;5.334;2024-01-11T00:19:24;18.60;51.20
10270;DHT22;70826;50.930;5.334;2024-01-11T00:21:49;18.60;51.10
10270;DHT22;70826;50.930;5.334;2024-01-11T00:24:15;18.60;51.10
10270;DHT22;70826;50.930;5.334;2024-01-11T00:26:41;18.60;51.10
10270;DHT22;70826;50.930;5.334;2024-01-11T00:29:07;18.60;51.10
10270;DHT22;70826;50.930;5.334;2024-01-11T00:31:35;18.60;51.10
10270;DHT22;70826;50.930;5.334;2024-01-11T00:34:01;18.60;51.20
10270;DHT22;70826;50.930;5.334;2024-01-11T00:36:27;18.60;51.10
10270;DHT22;70826;50.930;5.334;2024-01-11T00:38:54;18.60;51.10
10270;DHT22;70826;50.930;5.334;2024-01-11T00:41:19;18.60;51.20
10270;DHT22;70826;50.930;5.334;2024-01-11T00:43:45;18.50;51.20
10270;DHT22;70826;50.930;5.334;2024-01-11T00:46:11;18.50;51.10
10270;DHT22;70826;50.930;5.334;2024-01-11T00:48:37;18.60;51.10
10270;DHT22;70826;50.930;5.334;2024-01-11T00:51:06;18.50;51.10
10270;DHT22;70826;50.930;5.334;2024-01-11T00:53:32;18.50;51.10
10270;DHT22;70826;50.930;5.334;2024-01-11T00:55:59;18.60;51.10
10270;DHT22;70826;50.930;5.334;2024-01-11T00:58:24;18.50;51.00
10270;DHT22;70826;50.930;5.334;2024-01-11T01:00:53;18.50;51.00
10270;DHT22;70826;50.930;5.334;2024-01-11T01:03:22;18.50;51.00
10270;DHT22;70826;50.930;5.334;2024-01-11T01:05:48;18.50;50.90
10270;DHT22;70826;50.930;5.334;2024-01-11T01:08:14;18.50;51.00
10270;DHT22;70826;50.930;5.334;2024-01-11T01:10:40;18.60;51.00
10270;DHT22;70826;50.930;5.334;2024-01-11T01:13:06;18.50;51.00
10270;DHT22;70826;50.930;5.334;2024-01-11T01:15:31;18.50;51.00
10270;DHT22;70826;50.930;5.334;2024-01-11T01:17:57;18.50;51.10
10270;DHT22;70826;50.930;5.334;2024-01-11T01:20:23;18.50;51.00
10270;DHT22;70826;50.930;5.334;2024-01-11T01:22:49;18.50;51.00
10270;DHT22;70826;50.930;5.334;2024-01-11T01:25:15;18.50;51.00
10270;DHT22;70826;50.930;5.334;2024-01-11T01:27:41;18.50;51.00
10270;DHT22;70826;50.930;5.334;2024-01-11T01:30:07;18.50;51.00
10270;DHT22;70826;50.930;5.334;2024-01-11T01:32:34;18.50;51.10
10270;DHT22;70826;50.930;5.334;2024-01-11T01:35:00;18.50;51.10
10270;DHT22;70826;50.930;5.334;2024-01-11T01:37:25;18.50;51.10
10270;DHT22;70826;50.930;5.334;2024-01-11T01:39:51;18.50;51.20
10270;DHT22;70826;50.930;5.334;2024-01-11T01:42:17;18.50;51.10
10270;DHT22;70826;50.930;5.334;2024-01-11T01:44:42;18.50;51.10
10270;DHT22;70826;50.930;5.334;2024-01-11T01:47:10;18.50;51.20
10270;DHT22;70826;50.930;5.334;2024-01-11T01:49:39;18.50;51.10
10270;DHT22;70826;50.930;5.334;2024-01-11T01:52:06;18.50;51.10
10270;DHT22;70826;50.930;5.334;2024-01-11T01:54:33;18.50;51.10
10270;DHT22;70826;50.930;5.334;2024-01-11T01:56:59;18.50;51.10
10270;DHT22;70826;50.930;5.334;2024-01-11T01:59:26;18.50;51.10
10270;DHT22;70826;50.930;5.334;2024-01-11T02:01:53;18.50;51.10
10270;DHT22;70826;50.930;5.334;2024-01-11T02:04:19;18.50;51.10
10270;DHT22;70826;50.930;5.334;2024-01-11T02:06:46;18.50;51.10
10270;DHT22;70826;50.930;5.334;2024-01-11T02:09:13;18.50;51.20
10270;DHT22;70826;50.930;5.334;2024-01-11T02:11:40;18.50;51.10
10270;DHT22;70826;50.930;5.334;2024-01-11T02:14:07;18.50;51.10
10270;DHT22;70826;50.930;5.334;2024-01-11T02:16:32;18.50;51.10
10270;DHT22;70826;50.930;5.334;2024-01-11T02:18:58;18.50;51.10
10270;DHT22;70826;50.930;5.334;2024-01-11T02:21:24;18.50;51.10
10270;DHT22;70826;50.930;5.334;2024-01-11T02:24:02;18.50;51.10
10270;DHT22;70826;50.930;5.334;2024-01-11T02:26:28;18.50;51.10
10270;DHT22;70826;50.930;5.334;2024-01-11T02:28:54;18.50;51.10
10270;DHT22;70826;50.930;5.334;2024-01-11T02:31:22;18.50;51.10
10270;DHT22;70826;50.930;5.334;2024-01-11T02:33:54;18.50;51.10
10270;DHT22;70826;50.930;5.334;2024-01-11T02:36:21;18.50;51.10
10270;DHT22;70826;50.930;5.334;2024-01-11T02:38:47;18.50;51.10
10270;DHT22;70826;50.930;5.334;2024-01-11T02:41:16;18.50;51.10
10270;DHT22;70826;50.930;5.334;2024-01-11T02:43:47;18.50;51.10
10270;DHT22;70826;50.930;5.334;2024-01-11T02:46:13;18.50;51.10
10270;DHT22;70826;50.930;5.334;2024-01-11T02:48:39;18.50;51.20
10270;DHT22;70826;50.930;5.334;2024-01-11T02:51:05;18.50;51.10
10270;DHT22;70826;50.930;5.334;2024-01-11T02:53:31;18.50;51.10
10270;DHT22;70826;50.930;5.334;2024-01-11T02:56:02;18.50;51.10
10270;DHT22;70826;50.930;5.334;2024-01-11T02:58:28;18.50;51.10
10270;DHT22;70826;50.930;5.334;2024-01-11T03:00:54;18.50;51.10
10270;DHT22;70826;50.930;5.334;2024-01-11T03:03:19;18.50;51.10
10270;DHT22;70826;50.930;5.334;2024-01-11T03:05:45;18.50;51.10
10270;DHT22;70826;50.930;5.334;2024-01-11T03:08:10;18.50;51.10
10270;DHT22;70826;50.930;5.334;2024-01-11T03:10:37;18.50;51.10
10270;DHT22;70826;50.930;5.334;2024-01-11T03:13:05;18.40;51.00
10270;DHT22;70826;50.930;5.334;2024-01-11T03:15:30;18.50;51.10
10270;DHT22;70826;50.930;5.334;2024-01-11T03:17:56;18.40;51.10
10270;DHT22;70826;50.930;5.334;2024-01-11T03:20:21;18.40;51.10
10270;DHT22;70826;50.930;5.334;2024-01-11T03:22:50;18.40;51.10
10270;DHT22;70826;50.930;5.334;2024-01-11T03:25:17;18.40;51.10
10270;DHT22;70826;50.930;5.334;2024-01-11T03:27:42;18.40;51.10
10270;DHT22;70826;50.930;5.334;2024-01-11T03:30:08;18.50;51.10
10270;DHT22;70826;50.930;5.334;2024-01-11T03:32:34;18.40;51.00
10270;DHT22;70826;50.930;5.334;2024-01-11T03:34:59;18.40;51.00
10270;DHT22;70826;50.930;5.334;2024-01-11T03:37:25;18.40;51.10
10270;DHT22;70826;50.930;5.334;2024-01-11T03:39:51;18.40;51.10
10270;DHT22;70826;50.930;5.334;2024-01-11T03:42:16;18.40;51.00
10270;DHT22;70826;50.930;5.334;2024-01-11T03:44:42;18.50;51.10
10270;DHT22;70826;50.930;5.334;2024-01-11T03:47:08;18.40;51.10
10270;DHT22;70826;50.930;5.334;2024-01-11T03:49:34;18.40;51.10
10270;DHT22;70826;50.930;5.334;2024-01-11T03:51:59;18.40;51.10
10270;DHT22;70826;50.930;5.334;2024-01-11T03:54:27;18.40;51.00
10270;DHT22;70826;50.930;5.334;2024-01-11T03:56:52;18.50;51.20
10270;DHT22;70826;50.930;5.334;2024-01-11T03:59:19;18.50;51.10
10270;DHT22;70826;50.930;5.334;2024-01-11T04:01:45;18.40;51.10
10270;DHT22;70826;50.930;5.334;2024-01-11T04:04:13;18.40;51.00
10270;DHT22;70826;50.930;5.334;2024-01-11T04:06:39;18.40;51.10
10270;DHT22;70826;50.930;5.334;2024-01-11T04:09:07;18.40;51.10
10270;DHT22;70826;50.930;5.334;2024-01-11T04:11:33;18.50;51.10
10270;DHT22;70826;50.930;5.334;2024-01-11T04:13:58;18.40;51.10
10270;DHT22;70826;50.930;5.334;2024-01-11T04:16:24;18.40;51.10
10270;DHT22;70826;50.930;5.334;2024-01-11T04:18:50;18.40;51.00
10270;DHT22;70826;50.930;5.334;2024-01-11T04:21:22;18.40;51.00
10270;DHT22;70826;50.930;5.334;2024-01-11T04:23:48;18.40;51.70
10270;DHT22;70826;50.930;5.334;2024-01-11T04:26:14;18.40;51.10
10270;DHT22;70826;50.930;5.334;2024-01-11T04:28:40;18.40;51.10
10270;DHT22;70826;50.930;5.334;2024-01-11T04:31:08;18.40;51.20
10270;DHT22;70826;50.930;5.334;2024-01-11T04:33:36;18.40;51.10
10270;DHT22;70826;50.930;5.334;2024-01-11T04:36:07;18.40;51.00
10270;DHT22;70826;50.930;5.334;2024-01-11T04:38:36;18.40;51.00
10270;DHT22;70826;50.930;5.334;2024-01-11T04:41:07;18.40;51.00
10270;DHT22;70826;50.930;5.334;2024-01-11T04:43:38;18.40;51.00
10270;DHT22;70826;50.930;5.334;2024-01-11T04:46:13;18.40;51.10
10270;DHT22;70826;50.930;5.334;2024-01-11T04:48:42;18.40;51.00
10270;DHT22;70826;50.930;5.334;2024-01-11T04:51:07;18.40;51.10
10270;DHT22;70826;50.930;5.334;2024-01-11T04:53:39;18.40;51.10
10270;DHT22;70826;50.930;5.334;2024-01-11T04:56:11;18.40;51.10
10270;DHT22;70826;50.930;5.334;2024-01-11T04:58:43;18.40;51.10
10270;DHT22;70826;50.930;5.334;2024-01-11T05:01:16;18.40;51.10
10270;DHT22;70826;50.930;5.334;2024-01-11T05:03:48;18.40;51.10
10270;DHT22;70826;50.930;5.334;2024-01-11T05:06:18;18.40;51.10
10270;DHT22;70826;50.930;5.334;2024-01-11T05:08:49;18.40;51.20
10270;DHT22;70826;50.930;5.334;2024-01-11T05:11:24;18.40;51.10
10270;DHT22;70826;50.930;5.334;2024-01-11T05:13:54;18.40;51.10
10270;DHT22;70826;50.930;5.334;2024-01-11T05:16:24;18.40;51.20
10270;DHT22;70826;50.930;5.334;2024-01-11T05:18:51;18.40;51.20
10270;DHT22;70826;50.930;5.334;2024-01-11T05:21:19;18.40;51.20
10270;DHT22;70826;50.930;5.334;2024-01-11T05:23:45;18.40;51.20
10270;DHT22;70826;50.930;5.334;2024-01-11T05:26:13;18.40;51.20
10270;DHT22;70826;50.930;5.334;2024-01-11T05:28:38;18.40;51.10
10270;DHT22;70826;50.930;5.334;2024-01-11T05:31:11;18.40;51.10
10270;DHT22;70826;50.930;5.334;2024-01-11T05:33:40;18.40;51.20
10270;DHT22;70826;50.930;5.334;2024-01-11T05:36:06;18.40;51.20
10270;DHT22;70826;50.930;5.334;2024-01-11T05:38:35;18.40;51.20
10270;DHT22;70826;50.930;5.334;2024-01-11T05:41:01;18.40;51.20
10270;DHT22;70826;50.930;5.334;2024-01-11T05:43:27;18.40;51.20
10270;DHT22;70826;50.930;5.334;2024-01-11T05:45:53;18.40;51.20
10270;DHT22;70826;50.930;5.334;2024-01-11T05:48:18;18.40;51.20
10270;DHT22;70826;50.930;5.334;2024-01-11T05:50:46;18.40;51.20
10270;DHT22;70826;50.930;5.334;2024-01-11T05:53:14;18.40;51.20
10270;DHT22;70826;50.930;5.334;2024-01-11T05:55:43;18.40;51.20
10270;DHT22;70826;50.930;5.334;2024-01-11T05:58:08;18.40;51.20
10270;DHT22;70826;50.930;5.334;2024-01-11T06:00:39;18.40;51.20
10270;DHT22;70826;50.930;5.334;2024-01-11T06:03:08;18.40;51.20
10270;DHT22;70826;50.930;5.334;2024-01-11T06:05:35;18.40;51.20
10270;DHT22;70826;50.930;5.334;2024-01-11T06:08:06;18.40;51.20
10270;DHT22;70826;50.930;5.334;2024-01-11T06:10:39;18.40;51.80
10270;DHT22;70826;50.930;5.334;2024-01-11T06:13:11;18.40;51.20
10270;DHT22;70826;50.930;5.334;2024-01-11T06:15:37;18.40;51.10
10270;DHT22;70826;50.930;5.334;2024-01-11T06:18:03;18.40;51.20
10270;DHT22;70826;50.930;5.334;2024-01-11T06:20:32;18.40;51.20
10270;DHT22;70826;50.930;5.334;2024-01-11T06:23:00;18.40;51.10
10270;DHT22;70826;50.930;5.334;2024-01-11T06:25:28;18.40;51.10
10270;DHT22;70826;50.930;5.334;2024-01-11T06:27:56;18.40;51.80
10270;DHT22;70826;50.930;5.334;2024-01-11T06:30:22;18.40;51.20
10270;DHT22;70826;50.930;5.334;2024-01-11T06:32:48;18.40;51.20
10270;DHT22;70826;50.930;5.334;2024-01-11T06:35:18;18.40;51.20
10270;DHT22;70826;50.930;5.334;2024-01-11T06:37:46;18.40;51.10
10270;DHT22;70826;50.930;5.334;2024-01-11T06:40:16;18.40;51.10
10270;DHT22;70826;50.930;5.334;2024-01-11T06:42:47;18.40;51.20
10270;DHT22;70826;50.930;5.334;2024-01-11T06:45:12;18.40;51.20
10270;DHT22;70826;50.930;5.334;2024-01-11T06:47:38;18.40;51.20
10270;DHT22;70826;50.930;5.334;2024-01-11T06:50:04;18.40;51.20
10270;DHT22;70826;50.930;5.334;2024-01-11T06:52:30;18.30;51.20
10270;DHT22;70826;50.930;5.334;2024-01-11T06:54:55;18.40;51.20
10270;DHT22;70826;50.930;5.334;2024-01-11T06:57:23;18.30;51.20
10270;DHT22;70826;50.930;5.334;2024-01-11T06:59:50;18.30;51.20
10270;DHT22;70826;50.930;5.334;2024-01-11T07:02:16;18.30;51.20
10270;DHT22;70826;50.930;5.334;2024-01-11T07:04:47;18.40;51.20
10270;DHT22;70826;50.930;5.334;2024-01-11T07:07:13;18.30;51.20
10270;DHT22;70826;50.930;5.334;2024-01-11T07:09:41;18.30;51.20
10270;DHT22;70826;50.930;5.334;2024-01-11T07:12:07;18.40;51.20
10270;DHT22;70826;50.930;5.334;2024-01-11T07:14:35;18.40;51.20
10270;DHT22;70826;50.930;5.334;2024-01-11T07:17:05;18.30;51.20
10270;DHT22;70826;50.930;5.334;2024-01-11T07:19:33;18.30;51.20
10270;DHT22;70826;50.930;5.334;2024-01-11T07:22:02;18.30;51.20
10270;DHT22;70826;50.930;5.334;2024-01-11T07:24:27;18.30;51.20
10270;DHT22;70826;50.930;5.334;2024-01-11T07:27:06;18.30;51.20
10270;DHT22;70826;50.930;5.334;2024-01-11T07:29:32;18.30;51.10
10270;DHT22;70826;50.930;5.334;2024-01-11T07:31:58;18.40;51.20
10270;DHT22;70826;50.930;5.334;2024-01-11T07:34:26;18.30;51.10
10270;DHT22;70826;50.930;5.334;2024-01-11T07:36:53;18.30;51.10
10270;DHT22;70826;50.930;5.334;2024-01-11T07:39:21;18.40;51.20
10270;DHT22;70826;50.930;5.334;2024-01-11T07:41:50;18.30;51.10
10270;DHT22;70826;50.930;5.334;2024-01-11T07:44:18;18.40;51.20
10270;DHT22;70826;50.930;5.334;2024-01-11T07:46:44;18.30;51.10
10270;DHT22;70826;50.930;5.334;2024-01-11T07:49:14;18.30;51.20
10270;DHT22;70826;50.930;5.334;2024-01-11T07:51:40;18.30;51.10
10270;DHT22;70826;50.930;5.334;2024-01-11T07:54:06;18.30;51.20
10270;DHT22;70826;50.930;5.334;2024-01-11T07:56:34;18.30;51.20
10270;DHT22;70826;50.930;5.334;2024-01-11T07:59:02;18.30;51.20
10270;DHT22;70826;50.930;5.334;2024-01-11T08:01:28;18.40;51.30
10270;DHT22;70826;50.930;5.334;2024-01-11T08:03:56;18.40;51.30
10270;DHT22;70826;50.930;5.334;2024-01-11T08:06:29;18.40;51.30
10270;DHT22;70826;50.930;5.334;2024-01-11T08:08:55;18.30;51.20
10270;DHT22;70826;50.930;5.334;2024-01-11T08:11:23;18.30;51.20
10270;DHT22;70826;50.930;5.334;2024-01-11T08:13:50;18.30;51.20
10270;DHT22;70826;50.930;5.334;2024-01-11T08:16:18;18.30;51.20
10270;DHT22;70826;50.930;5.334;2024-01-11T08:18:46;18.30;51.20
10270;DHT22;70826;50.930;5.334;2024-01-11T08:21:17;18.30;51.20
10270;DHT22;70826;50.930;5.334;2024-01-11T08:23:42;18.40;51.20
10270;DHT22;70826;50.930;5.334;2024-01-11T08:26:14;18.30;51.20
10270;DHT22;70826;50.930;5.334;2024-01-11T08:28:42;18.30;51.20
10270;DHT22;70826;50.930;5.334;2024-01-11T08:31:08;18.30;51.10
10270;DHT22;70826;50.930;5.334;2024-01-11T08:33:34;18.30;51.00
10270;DHT22;70826;50.930;5.334;2024-01-11T08:36:01;18.30;51.10
10270;DHT22;70826;50.930;5.334;2024-01-11T08:38:29;18.30;51.00
10270;DHT22;70826;50.930;5.334;2024-01-11T08:40:55;18.30;51.00
10270;DHT22;70826;50.930;5.334;2024-01-11T08:43:20;18.30;50.90
10270;DHT22;70826;50.930;5.334;2024-01-11T08:45:46;18.40;50.90
10270;DHT22;70826;50.930;5.334;2024-01-11T08:48:19;18.30;50.90
10270;DHT22;70826;50.930;5.334;2024-01-11T08:50:47;18.40;51.00
10270;DHT22;70826;50.930;5.334;2024-01-11T08:53:18;18.40;51.00
10270;DHT22;70826;50.930;5.334;2024-01-11T08:55:43;18.40;51.10
10270;DHT22;70826;50.930;5.334;2024-01-11T08:58:16;18.40;51.30
10270;DHT22;70826;50.930;5.334;2024-01-11T09:00:41;18.40;51.40
10270;DHT22;70826;50.930;5.334;2024-01-11T09:03:07;18.40;51.40
10270;DHT22;70826;50.930;5.334;2024-01-11T09:05:37;18.40;51.30
10270;DHT22;70826;50.930;5.334;2024-01-11T09:08:05;18.40;51.30
10270;DHT22;70826;50.930;5.334;2024-01-11T09:10:34;18.40;51.30
10270;DHT22;70826;50.930;5.334;2024-01-11T09:13:02;18.40;51.20
10270;DHT22;70826;50.930;5.334;2024-01-11T09:15:30;18.40;51.20
10270;DHT22;70826;50.930;5.334;2024-01-11T09:17:59;18.30;51.20
10270;DHT22;70826;50.930;5.334;2024-01-11T09:20:28;18.40;51.20
10270;DHT22;70826;50.930;5.334;2024-01-11T09:22:56;18.40;51.20
10270;DHT22;70826;50.930;5.334;2024-01-11T09:25:21;18.40;51.20
10270;DHT22;70826;50.930;5.334;2024-01-11T09:27:49;18.40;51.20
10270;DHT22;70826;50.930;5.334;2024-01-11T09:30:15;18.40;51.20
10270;DHT22;70826;50.930;5.334;2024-01-11T09:32:47;18.30;51.20
10270;DHT22;70826;50.930;5.334;2024-01-11T09:35:13;18.40;51.20
10270;DHT22;70826;50.930;5.334;2024-01-11T09:37:39;18.40;51.20
10270;DHT22;70826;50.930;5.334;2024-01-11T09:40:12;18.40;51.40
10270;DHT22;70826;50.930;5.334;2024-01-11T09:42:40;18.40;51.20
10270;DHT22;70826;50.930;5.334;2024-01-11T09:45:15;18.40;51.20
10270;DHT22;70826;50.930;5.334;2024-01-11T09:47:46;18.40;51.10
10270;DHT22;70826;50.930;5.334;2024-01-11T09:50:19;18.30;51.20
10270;DHT22;70826;50.930;5.334;2024-01-11T09:52:47;18.40;51.20
10270;DHT22;70826;50.930;5.334;2024-01-11T09:55:23;18.40;51.20
10270;DHT22;70826;50.930;5.334;2024-01-11T09:57:52;18.30;51.20
10270;DHT22;70826;50.930;5.334;2024-01-11T10:00:25;18.30;51.20
10270;DHT22;70826;50.930;5.334;2024-01-11T10:02:54;18.30;51.40
10270;DHT22;70826;50.930;5.334;2024-01-11T10:05:22;18.20;51.80
10270;DHT22;70826;50.930;5.334;2024-01-11T10:07:50;18.10;52.10
10270;DHT22;70826;50.930;5.334;2024-01-11T10:10:18;18.10;52.40
10270;DHT22;70826;50.930;5.334;2024-01-11T10:12:45;18.10;52.60
10270;DHT22;70826;50.930;5.334;2024-01-11T10:15:15;18.10;52.90
10270;DHT22;70826;50.930;5.334;2024-01-11T10:17:46;18.10;53.20
10270;DHT22;70826;50.930;5.334;2024-01-11T10:20:15;18.10;53.40
10270;DHT22;70826;50.930;5.334;2024-01-11T10:22:49;18.10;53.40
10270;DHT22;70826;50.930;5.334;2024-01-11T10:25:18;18.20;53.90
10270;DHT22;70826;50.930;5.334;2024-01-11T10:27:46;18.30;53.70
10270;DHT22;70826;50.930;5.334;2024-01-11T10:30:13;18.40;53.70
10270;DHT22;70826;50.930;5.334;2024-01-11T10:32:44;18.50;53.70
10270;DHT22;70826;50.930;5.334;2024-01-11T10:35:13;18.50;53.60
10270;DHT22;70826;50.930;5.334;2024-01-11T10:37:41;18.50;53.60
10270;DHT22;70826;50.930;5.334;2024-01-11T10:40:08;18.50;53.30
10270;DHT22;70826;50.930;5.334;2024-01-11T10:42:45;18.50;53.10
10270;DHT22;70826;50.930;5.334;2024-01-11T10:45:20;18.60;53.00
10270;DHT22;70826;50.930;5.334;2024-01-11T10:47:56;18.60;52.80
10270;DHT22;70826;50.930;5.334;2024-01-11T10:50:29;18.60;52.70
10270;DHT22;70826;50.930;5.334;2024-01-11T10:53:28;18.60;52.60
10270;DHT22;70826;50.930;5.334;2024-01-11T10:55:59;18.60;52.50
10270;DHT22;70826;50.930;5.334;2024-01-11T10:58:29;18.60;52.40
10270;DHT22;70826;50.930;5.334;2024-01-11T11:00:59;18.60;52.20
10270;DHT22;70826;50.930;5.334;2024-01-11T11:03:30;18.70;52.20
10270;DHT22;70826;50.930;5.334;2024-01-11T11:06:03;18.60;52.00
10270;DHT22;70826;50.930;5.334;2024-01-11T11:08:32;18.60;52.00
10270;DHT22;70826;50.930;5.334;2024-01-11T11:11:02;18.60;52.00
10270;DHT22;70826;50.930;5.334;2024-01-11T11:13:34;18.70;52.00
10270;DHT22;70826;50.930;5.334;2024-01-11T11:16:05;18.70;51.90
10270;DHT22;70826;50.930;5.334;2024-01-11T11:18:36;18.60;51.90
10270;DHT22;70826;50.930;5.334;2024-01-11T11:21:17;18.60;51.90
10270;DHT22;70826;50.930;5.334;2024-01-11T11:23:45;18.60;51.70
10270;DHT22;70826;50.930;5.334;2024-01-11T11:26:17;18.70;51.80
10270;DHT22;70826;50.930;5.334;2024-01-11T11:28:45;18.60;51.70
10270;DHT22;70826;50.930;5.334;2024-01-11T11:31:13;18.70;51.80
10270;DHT22;70826;50.930;5.334;2024-01-11T11:33:44;18.60;51.70
10270;DHT22;70826;50.930;5.334;2024-01-11T11:36:12;18.60;51.70
10270;DHT22;70826;50.930;5.334;2024-01-11T11:38:41;18.60;51.70
10270;DHT22;70826;50.930;5.334;2024-01-11T11:41:07;18.60;51.70
10270;DHT22;70826;50.930;5.334;2024-01-11T11:43:38;18.60;51.80
10270;DHT22;70826;50.930;5.334;2024-01-11T11:46:08;18.60;51.80
10270;DHT22;70826;50.930;5.334;2024-01-11T11:51:12;18.60;51.70
10270;DHT22;70826;50.930;5.334;2024-01-11T11:53:41;18.60;51.70
10270;DHT22;70826;50.930;5.334;2024-01-11T11:56:08;18.60;51.60
10270;DHT22;70826;50.930;5.334;2024-01-11T11:58:42;18.60;51.60
10270;DHT22;70826;50.930;5.334;2024-01-11T12:01:11;18.60;51.60
10270;DHT22;70826;50.930;5.334;2024-01-11T12:03:38;18.60;51.60
10270;DHT22;70826;50.930;5.334;2024-01-11T12:06:15;18.60;51.60
10270;DHT22;70826;50.930;5.334;2024-01-11T12:08:44;18.60;51.50
10270;DHT22;70826;50.930;5.334;2024-01-11T12:11:13;18.60;51.50
10270;DHT22;70826;50.930;5.334;2024-01-11T12:13:40;18.50;51.50
10270;DHT22;70826;50.930;5.334;2024-01-11T12:16:06;18.60;51.60
10270;DHT22;70826;50.930;5.334;2024-01-11T12:18:31;18.60;51.60
10270;DHT22;70826;50.930;5.334;2024-01-11T12:20:59;18.50;51.60
10270;DHT22;70826;50.930;5.334;2024-01-11T12:23:27;18.50;51.60
10270;DHT22;70826;50.930;5.334;2024-01-11T12:25:57;18.50;51.50
10270;DHT22;70826;50.930;5.334;2024-01-11T12:28:26;18.60;51.60
10270;DHT22;70826;50.930;5.334;2024-01-11T12:30:54;18.50;51.50
10270;DHT22;70826;50.930;5.334;2024-01-11T12:33:19;18.50;51.60
10270;DHT22;70826;50.930;5.334;2024-01-11T12:35:49;18.50;51.60
10270;DHT22;70826;50.930;5.334;2024-01-11T12:38:17;18.50;51.50
10270;DHT22;70826;50.930;5.334;2024-01-11T12:40:45;18.50;51.50
10270;DHT22;70826;50.930;5.334;2024-01-11T12:43:15;18.50;51.60
10270;DHT22;70826;50.930;5.334;2024-01-11T12:45:41;18.50;51.50
10270;DHT22;70826;50.930;5.334;2024-01-11T12:48:09;18.50;51.50
10270;DHT22;70826;50.930;5.334;2024-01-11T12:50:38;18.50;51.50
10270;DHT22;70826;50.930;5.334;2024-01-11T12:53:12;18.50;51.60
10270;DHT22;70826;50.930;5.334;2024-01-11T12:55:47;18.50;51.60
10270;DHT22;70826;50.930;5.334;2024-01-11T12:58:13;18.50;51.60
10270;DHT22;70826;50.930;5.334;2024-01-11T13:00:44;18.50;51.50
10270;DHT22;70826;50.930;5.334;2024-01-11T13:03:12;18.50;51.50
10270;DHT22;70826;50.930;5.334;2024-01-11T13:05:37;18.50;51.50
10270;DHT22;70826;50.930;5.334;2024-01-11T13:08:12;18.50;51.50
10270;DHT22;70826;50.930;5.334;2024-01-11T13:10:42;18.50;51.50
10270;DHT22;70826;50.930;5.334;2024-01-11T13:13:08;18.50;51.50
10270;DHT22;70826;50.930;5.334;2024-01-11T13:15:34;18.50;51.60
10270;DHT22;70826;50.930;5.334;2024-01-11T13:18:02;18.40;51.90
10270;DHT22;70826;50.930;5.334;2024-01-11T13:20:28;18.30;52.20
10270;DHT22;70826;50.930;5.334;2024-01-11T13:23:16;18.20;52.50
10270;DHT22;70826;50.930;5.334;2024-01-11T13:25:43;18.20;52.80
10270;DHT22;70826;50.930;5.334;2024-01-11T13:28:10;18.20;53.00
10270;DHT22;70826;50.930;5.334;2024-01-11T13:30:44;18.20;53.10
10270;DHT22;70826;50.930;5.334;2024-01-11T13:33:17;18.20;53.30
10270;DHT22;70826;50.930;5.334;2024-01-11T13:35:47;18.20;53.40
10270;DHT22;70826;50.930;5.334;2024-01-11T13:38:12;18.20;53.60
10270;DHT22;70826;50.930;5.334;2024-01-11T13:40:40;18.20;53.60
10270;DHT22;70826;50.930;5.334;2024-01-11T13:43:08;18.30;53.40
10270;DHT22;70826;50.930;5.334;2024-01-11T13:45:41;18.40;53.20
10270;DHT22;70826;50.930;5.334;2024-01-11T13:48:10;18.50;53.10
10270;DHT22;70826;50.930;5.334;2024-01-11T13:50:35;18.50;52.90
10270;DHT22;70826;50.930;5.334;2024-01-11T13:53:03;18.60;52.80
10270;DHT22;70826;50.930;5.334;2024-01-11T13:55:31;18.60;52.60
10270;DHT22;70826;50.930;5.334;2024-01-11T13:58:05;18.60;52.50
10270;DHT22;70826;50.930;5.334;2024-01-11T14:00:33;18.70;52.40
10270;DHT22;70826;50.930;5.334;2024-01-11T14:03:02;18.70;52.30
10270;DHT22;70826;50.930;5.334;2024-01-11T14:05:30;18.80;52.20
10270;DHT22;70826;50.930;5.334;2024-01-11T14:07:56;18.80;52.10
10270;DHT22;70826;50.930;5.334;2024-01-11T14:10:27;18.80;52.10
10270;DHT22;70826;50.930;5.334;2024-01-11T14:12:53;18.80;52.00
10270;DHT22;70826;50.930;5.334;2024-01-11T14:15:19;18.80;52.00
10270;DHT22;70826;50.930;5.334;2024-01-11T14:17:47;18.80;51.90
10270;DHT22;70826;50.930;5.334;2024-01-11T14:20:13;18.80;51.80
10270;DHT22;70826;50.930;5.334;2024-01-11T14:22:42;18.80;51.70
10270;DHT22;70826;50.930;5.334;2024-01-11T14:25:12;18.80;51.70
10270;DHT22;70826;50.930;5.334;2024-01-11T14:27:41;18.80;51.60
10270;DHT22;70826;50.930;5.334;2024-01-11T14:30:07;18.80;51.70
10270;DHT22;70826;50.930;5.334;2024-01-11T14:32:37;18.80;51.60
10270;DHT22;70826;50.930;5.334;2024-01-11T14:35:07;18.80;52.30
10270;DHT22;70826;50.930;5.334;2024-01-11T14:37:39;18.70;51.60
10270;DHT22;70826;50.930;5.334;2024-01-11T14:40:10;18.70;51.60
10270;DHT22;70826;50.930;5.334;2024-01-11T14:42:47;18.70;51.50
10270;DHT22;70826;50.930;5.334;2024-01-11T14:45:13;18.70;51.50
10270;DHT22;70826;50.930;5.334;2024-01-11T14:47:39;18.70;51.60
10270;DHT22;70826;50.930;5.334;2024-01-11T14:50:05;18.70;51.60
10270;DHT22;70826;50.930;5.334;2024-01-11T14:52:37;18.60;51.50
10270;DHT22;70826;50.930;5.334;2024-01-11T14:55:05;18.70;51.50
10270;DHT22;70826;50.930;5.334;2024-01-11T14:57:33;18.60;51.40
10270;DHT22;70826;50.930;5.334;2024-01-11T15:00:01;18.60;51.50
10270;DHT22;70826;50.930;5.334;2024-01-11T15:02:30;18.60;51.40
10270;DHT22;70826;50.930;5.334;2024-01-11T15:05:00;18.60;51.40
10270;DHT22;70826;50.930;5.334;2024-01-11T15:07:26;18.60;51.40
10270;DHT22;70826;50.930;5.334;2024-01-11T15:09:54;18.60;51.40
10270;DHT22;70826;50.930;5.334;2024-01-11T15:12:22;18.60;51.40
10270;DHT22;70826;50.930;5.334;2024-01-11T15:14:47;18.60;51.40
10270;DHT22;70826;50.930;5.334;2024-01-11T15:17:17;18.60;51.40
10270;DHT22;70826;50.930;5.334;2024-01-11T15:19:43;18.60;51.40
10270;DHT22;70826;50.930;5.334;2024-01-11T15:22:16;18.60;51.40
10270;DHT22;70826;50.930;5.334;2024-01-11T15:24:42;18.60;51.30
10270;DHT22;70826;50.930;5.334;2024-01-11T15:27:08;18.60;51.40
10270;DHT22;70826;50.930;5.334;2024-01-11T15:29:38;18.60;51.40
10270;DHT22;70826;50.930;5.334;2024-01-11T15:32:06;18.60;51.30
10270;DHT22;70826;50.930;5.334;2024-01-11T15:34:31;18.60;51.30
10270;DHT22;70826;50.930;5.334;2024-01-11T15:37:02;18.60;51.30
10270;DHT22;70826;50.930;5.334;2024-01-11T15:39:29;18.60;51.40